sensor_id;sensor_type;location;lat;lon;timestamp;P1;durP1;ratioP1;P2;durP2;ratioP2
23404;SDS011;11875;49.356;2.718;2023-08-06T00:02:18;3.10;;;0.90;;
23404;SDS011;11875;49.356;2.718;2023-08-06T00:04:44;3.97;;;1.17;;
23404;SDS011;11875;49.356;2.718;2023-08-06T00:07:09;7.68;;;0.90;;
23404;SDS011;11875;49.356;2.718;2023-08-06T00:09:35;2.92;;;0.65;;
23404;SDS011;11875;49.356;2.718;2023-08-06T00:12:01;2.20;;;0.80;;
23404;SDS011;11875;49.356;2.718;2023-08-06T00:14:26;3.35;;;1.30;;
23404;SDS011;11875;49.356;2.718;2023-08-06T00:16:52;1.35;;;0.73;;
23404;SDS011;11875;49.356;2.718;2023-08-06T00:19:17;6.60;;;0.90;;
23404;SDS011;11875;49.356;2.718;2023-08-06T00:21:43;1.35;;;0.60;;
23404;SDS011;11875;49.356;2.718;2023-08-06T00:24:08;2.33;;;0.88;;
23404;SDS011;11875;49.356;2.718;2023-08-06T00:26:34;1.63;;;0.80;;
23404;SDS011;11875;49.356;2.718;2023-08-06T00:29:00;0.98;;;0.57;;
23404;SDS011;11875;49.356;2.718;2023-08-06T00:31:25;0.90;;;0.57;;
23404;SDS011;11875;49.356;2.718;2023-08-06T00:33:51;1.73;;;0.85;;
23404;SDS011;11875;49.356;2.718;2023-08-06T00:36:16;2.53;;;0.82;;
23404;SDS011;11875;49.356;2.718;2023-08-06T00:38:42;3.72;;;0.85;;
23404;SDS011;11875;49.356;2.718;2023-08-06T00:41:07;1.50;;;0.80;;
23404;SDS011;11875;49.356;2.718;2023-08-06T00:43:33;1.17;;;0.65;;
23404;SDS011;11875;49.356;2.718;2023-08-06T00:45:58;1.95;;;0.77;;
23404;SDS011;11875;49.356;2.718;2023-08-06T00:48:24;0.93;;;0.55;;
23404;SDS011;11875;49.356;2.718;2023-08-06T00:50:50;1.85;;;0.70;;
23404;SDS011;11875;49.356;2.718;2023-08-06T00:53:16;0.68;;;0.68;;
23404;SDS011;11875;49.356;2.718;2023-08-06T00:55:43;1.85;;;0.63;;
23404;SDS011;11875;49.356;2.718;2023-08-06T00:58:10;2.63;;;0.60;;
23404;SDS011;11875;49.356;2.718;2023-08-06T01:00:37;1.83;;;0.60;;
23404;SDS011;11875;49.356;2.718;2023-08-06T01:03:03;2.20;;;0.70;;
23404;SDS011;11875;49.356;2.718;2023-08-06T01:05:28;1.67;;;0.80;;
23404;SDS011;11875;49.356;2.718;2023-08-06T01:15:54;0.70;;;0.50;;
23404;SDS011;11875;49.356;2.718;2023-08-06T01:18:24;1.08;;;0.80;;
23404;SDS011;11875;49.356;2.718;2023-08-06T01:20:50;2.20;;;0.70;;
23404;SDS011;11875;49.356;2.718;2023-08-06T01:23:16;2.35;;;0.80;;
23404;SDS011;11875;49.356;2.718;2023-08-06T01:25:45;1.88;;;0.55;;
23404;SDS011;11875;49.356;2.718;2023-08-06T01:28:27;0.60;;;0.60;;
23404;SDS011;11875;49.356;2.718;2023-08-06T01:31:14;1.38;;;0.93;;
23404;SDS011;11875;49.356;2.718;2023-08-06T01:33:45;1.52;;;0.70;;
23404;SDS011;11875;49.356;2.718;2023-08-06T01:36:13;0.60;;;0.60;;
23404;SDS011;11875;49.356;2.718;2023-08-06T01:38:41;1.23;;;0.50;;
23404;SDS011;11875;49.356;2.718;2023-08-06T01:41:07;1.98;;;0.50;;
23404;SDS011;11875;49.356;2.718;2023-08-06T01:43:32;1.95;;;0.50;;
23404;SDS011;11875;49.356;2.718;2023-08-06T01:45:58;2.28;;;0.50;;
23404;SDS011;11875;49.356;2.718;2023-08-06T01:48:23;1.83;;;0.40;;
23404;SDS011;11875;49.356;2.718;2023-08-06T01:50:49;0.70;;;0.60;;
23404;SDS011;11875;49.356;2.718;2023-08-06T01:53:14;1.35;;;0.70;;
23404;SDS011;11875;49.356;2.718;2023-08-06T01:55:40;1.15;;;0.63;;
23404;SDS011;11875;49.356;2.718;2023-08-06T01:58:05;1.73;;;0.82;;
23404;SDS011;11875;49.356;2.718;2023-08-06T02:00:31;0.73;;;0.70;;
23404;SDS011;11875;49.356;2.718;2023-08-06T02:02:57;3.33;;;0.80;;
23404;SDS011;11875;49.356;2.718;2023-08-06T02:05:22;3.50;;;0.82;;
23404;SDS011;11875;49.356;2.718;2023-08-06T02:07:48;3.53;;;0.93;;
23404;SDS011;11875;49.356;2.718;2023-08-06T02:10:13;6.05;;;1.30;;
23404;SDS011;11875;49.356;2.718;2023-08-06T02:12:39;3.72;;;1.33;;
23404;SDS011;11875;49.356;2.718;2023-08-06T02:15:04;3.28;;;1.30;;
23404;SDS011;11875;49.356;2.718;2023-08-06T02:17:32;3.88;;;1.13;;
23404;SDS011;11875;49.356;2.718;2023-08-06T02:19:57;2.97;;;1.20;;
23404;SDS011;11875;49.356;2.718;2023-08-06T02:22:23;4.05;;;1.30;;
23404;SDS011;11875;49.356;2.718;2023-08-06T02:24:49;3.53;;;1.48;;
23404;SDS011;11875;49.356;2.718;2023-08-06T02:27:14;3.05;;;1.50;;
23404;SDS011;11875;49.356;2.718;2023-08-06T02:29:40;3.35;;;1.25;;
23404;SDS011;11875;49.356;2.718;2023-08-06T02:32:06;3.92;;;1.15;;
23404;SDS011;11875;49.356;2.718;2023-08-06T02:34:32;1.20;;;0.90;;
23404;SDS011;11875;49.356;2.718;2023-08-06T02:36:58;7.03;;;0.95;;
23404;SDS011;11875;49.356;2.718;2023-08-06T02:39:23;3.08;;;1.13;;
23404;SDS011;11875;49.356;2.718;2023-08-06T02:41:49;1.05;;;0.80;;
23404;SDS011;11875;49.356;2.718;2023-08-06T02:44:15;1.13;;;0.70;;
23404;SDS011;11875;49.356;2.718;2023-08-06T02:46:40;1.63;;;0.70;;
23404;SDS011;11875;49.356;2.718;2023-08-06T02:49:06;1.38;;;0.65;;
23404;SDS011;11875;49.356;2.718;2023-08-06T02:51:32;2.35;;;0.90;;
23404;SDS011;11875;49.356;2.718;2023-08-06T02:53:57;2.25;;;1.00;;
23404;SDS011;11875;49.356;2.718;2023-08-06T02:56:23;2.70;;;0.90;;
23404;SDS011;11875;49.356;2.718;2023-08-06T02:58:48;2.17;;;1.00;;
23404;SDS011;11875;49.356;2.718;2023-08-06T03:01:14;3.40;;;1.10;;
23404;SDS011;11875;49.356;2.718;2023-08-06T03:03:40;2.85;;;1.15;;
23404;SDS011;11875;49.356;2.718;2023-08-06T03:06:05;2.08;;;1.23;;
23404;SDS011;11875;49.356;2.718;2023-08-06T03:08:31;3.53;;;1.15;;
23404;SDS011;11875;49.356;2.718;2023-08-06T03:10:57;1.77;;;0.95;;
23404;SDS011;11875;49.356;2.718;2023-08-06T03:13:22;5.13;;;1.23;;
23404;SDS011;11875;49.356;2.718;2023-08-06T03:15:54;2.25;;;1.20;;
23404;SDS011;11875;49.356;2.718;2023-08-06T03:18:21;4.43;;;1.00;;
23404;SDS011;11875;49.356;2.718;2023-08-06T03:20:46;2.42;;;1.33;;
23404;SDS011;11875;49.356;2.718;2023-08-06T03:23:12;1.77;;;1.00;;
23404;SDS011;11875;49.356;2.718;2023-08-06T03:25:38;2.50;;;1.13;;
23404;SDS011;11875;49.356;2.718;2023-08-06T03:28:03;3.28;;;1.30;;
23404;SDS011;11875;49.356;2.718;2023-08-06T03:30:29;6.38;;;1.35;;
23404;SDS011;11875;49.356;2.718;2023-08-06T03:32:54;4.47;;;1.20;;
23404;SDS011;11875;49.356;2.718;2023-08-06T03:35:20;2.00;;;1.40;;
23404;SDS011;11875;49.356;2.718;2023-08-06T03:37:46;3.60;;;1.80;;
23404;SDS011;11875;49.356;2.718;2023-08-06T03:40:11;1.95;;;1.52;;
23404;SDS011;11875;49.356;2.718;2023-08-06T03:42:37;2.67;;;1.70;;
23404;SDS011;11875;49.356;2.718;2023-08-06T03:45:02;6.07;;;1.90;;
23404;SDS011;11875;49.356;2.718;2023-08-06T03:47:28;2.72;;;1.85;;
23404;SDS011;11875;49.356;2.718;2023-08-06T03:49:54;3.70;;;2.08;;
23404;SDS011;11875;49.356;2.718;2023-08-06T03:52:19;5.32;;;2.20;;
23404;SDS011;11875;49.356;2.718;2023-08-06T03:54:45;2.10;;;1.80;;
23404;SDS011;11875;49.356;2.718;2023-08-06T03:57:10;3.13;;;2.08;;
23404;SDS011;11875;49.356;2.718;2023-08-06T03:59:36;4.43;;;2.05;;
23404;SDS011;11875;49.356;2.718;2023-08-06T04:02:02;3.60;;;2.00;;
23404;SDS011;11875;49.356;2.718;2023-08-06T04:04:27;6.15;;;2.05;;
23404;SDS011;11875;49.356;2.718;2023-08-06T04:06:53;2.83;;;2.00;;
23404;SDS011;11875;49.356;2.718;2023-08-06T04:09:19;4.25;;;2.17;;
23404;SDS011;11875;49.356;2.718;2023-08-06T04:11:44;2.63;;;2.00;;
23404;SDS011;11875;49.356;2.718;2023-08-06T04:14:10;5.70;;;2.58;;
23404;SDS011;11875;49.356;2.718;2023-08-06T04:16:35;4.57;;;2.25;;
23404;SDS011;11875;49.356;2.718;2023-08-06T04:19:01;3.70;;;2.40;;
23404;SDS011;11875;49.356;2.718;2023-08-06T04:21:27;4.05;;;2.67;;
23404;SDS011;11875;49.356;2.718;2023-08-06T04:23:52;6.30;;;2.70;;
23404;SDS011;11875;49.356;2.718;2023-08-06T04:26:18;5.03;;;2.83;;
23404;SDS011;11875;49.356;2.718;2023-08-06T04:28:43;5.60;;;2.50;;
23404;SDS011;11875;49.356;2.718;2023-08-06T04:31:09;7.50;;;2.90;;
23404;SDS011;11875;49.356;2.718;2023-08-06T04:33:34;8.02;;;3.03;;
23404;SDS011;11875;49.356;2.718;2023-08-06T04:36:00;5.82;;;3.05;;
23404;SDS011;11875;49.356;2.718;2023-08-06T04:38:26;6.70;;;3.08;;
23404;SDS011;11875;49.356;2.718;2023-08-06T04:40:51;8.77;;;2.88;;
23404;SDS011;11875;49.356;2.718;2023-08-06T04:43:17;7.47;;;3.53;;
23404;SDS011;11875;49.356;2.718;2023-08-06T04:45:50;8.73;;;3.75;;
23404;SDS011;11875;49.356;2.718;2023-08-06T04:48:18;14.57;;;4.13;;
23404;SDS011;11875;49.356;2.718;2023-08-06T04:50:47;5.90;;;3.55;;
23404;SDS011;11875;49.356;2.718;2023-08-06T04:53:13;6.65;;;3.78;;
23404;SDS011;11875;49.356;2.718;2023-08-06T04:55:39;9.25;;;3.78;;
23404;SDS011;11875;49.356;2.718;2023-08-06T04:58:05;4.28;;;3.20;;
23404;SDS011;11875;49.356;2.718;2023-08-06T05:00:30;5.53;;;3.28;;
23404;SDS011;11875;49.356;2.718;2023-08-06T05:02:57;7.78;;;3.60;;
23404;SDS011;11875;49.356;2.718;2023-08-06T05:05:24;10.57;;;3.63;;
23404;SDS011;11875;49.356;2.718;2023-08-06T05:07:50;5.70;;;3.35;;
23404;SDS011;11875;49.356;2.718;2023-08-06T05:10:15;5.55;;;3.50;;
23404;SDS011;11875;49.356;2.718;2023-08-06T05:12:41;7.22;;;3.88;;
23404;SDS011;11875;49.356;2.718;2023-08-06T05:15:07;9.70;;;3.70;;
23404;SDS011;11875;49.356;2.718;2023-08-06T05:17:33;8.27;;;4.07;;
23404;SDS011;11875;49.356;2.718;2023-08-06T05:19:59;7.97;;;3.67;;
23404;SDS011;11875;49.356;2.718;2023-08-06T05:22:24;12.43;;;3.88;;
23404;SDS011;11875;49.356;2.718;2023-08-06T05:24:50;9.93;;;3.90;;
23404;SDS011;11875;49.356;2.718;2023-08-06T05:27:16;5.88;;;3.30;;
23404;SDS011;11875;49.356;2.718;2023-08-06T05:29:43;6.57;;;3.67;;
23404;SDS011;11875;49.356;2.718;2023-08-06T05:32:09;8.27;;;3.75;;
23404;SDS011;11875;49.356;2.718;2023-08-06T05:34:35;6.57;;;3.42;;
23404;SDS011;11875;49.356;2.718;2023-08-06T05:37:01;6.20;;;2.97;;
23404;SDS011;11875;49.356;2.718;2023-08-06T05:39:26;4.85;;;3.20;;
23404;SDS011;11875;49.356;2.718;2023-08-06T05:41:52;6.75;;;3.38;;
23404;SDS011;11875;49.356;2.718;2023-08-06T05:44:17;6.15;;;3.30;;
23404;SDS011;11875;49.356;2.718;2023-08-06T05:46:43;7.95;;;2.97;;
23404;SDS011;11875;49.356;2.718;2023-08-06T05:49:09;7.00;;;3.20;;
23404;SDS011;11875;49.356;2.718;2023-08-06T05:51:34;4.50;;;2.85;;
23404;SDS011;11875;49.356;2.718;2023-08-06T05:54:00;4.20;;;2.70;;
23404;SDS011;11875;49.356;2.718;2023-08-06T05:56:25;7.00;;;2.72;;
23404;SDS011;11875;49.356;2.718;2023-08-06T05:58:51;7.95;;;2.65;;
23404;SDS011;11875;49.356;2.718;2023-08-06T06:01:18;4.22;;;2.42;;
23404;SDS011;11875;49.356;2.718;2023-08-06T06:03:44;5.88;;;2.35;;
23404;SDS011;11875;49.356;2.718;2023-08-06T06:06:10;4.65;;;2.20;;
23404;SDS011;11875;49.356;2.718;2023-08-06T06:08:35;7.82;;;2.17;;
23404;SDS011;11875;49.356;2.718;2023-08-06T06:11:01;4.43;;;2.35;;
23404;SDS011;11875;49.356;2.718;2023-08-06T06:13:26;11.60;;;2.10;;
23404;SDS011;11875;49.356;2.718;2023-08-06T06:15:55;5.55;;;2.13;;
23404;SDS011;11875;49.356;2.718;2023-08-06T06:18:21;5.72;;;2.38;;
23404;SDS011;11875;49.356;2.718;2023-08-06T06:20:47;4.97;;;2.47;;
23404;SDS011;11875;49.356;2.718;2023-08-06T06:23:13;4.65;;;2.70;;
23404;SDS011;11875;49.356;2.718;2023-08-06T06:25:57;6.00;;;2.88;;
23404;SDS011;11875;49.356;2.718;2023-08-06T06:28:23;5.20;;;2.50;;
23404;SDS011;11875;49.356;2.718;2023-08-06T06:30:48;8.30;;;2.10;;
23404;SDS011;11875;49.356;2.718;2023-08-06T06:33:14;6.03;;;2.30;;
23404;SDS011;11875;49.356;2.718;2023-08-06T06:35:40;2.75;;;1.60;;
23404;SDS011;11875;49.356;2.718;2023-08-06T06:38:06;3.70;;;1.42;;
23404;SDS011;11875;49.356;2.718;2023-08-06T06:40:31;4.55;;;1.70;;
23404;SDS011;11875;49.356;2.718;2023-08-06T06:42:58;3.40;;;1.52;;
23404;SDS011;11875;49.356;2.718;2023-08-06T06:45:23;3.05;;;1.40;;
23404;SDS011;11875;49.356;2.718;2023-08-06T06:47:49;3.25;;;1.67;;
23404;SDS011;11875;49.356;2.718;2023-08-06T06:50:14;4.63;;;1.35;;
23404;SDS011;11875;49.356;2.718;2023-08-06T06:52:40;5.65;;;1.90;;
23404;SDS011;11875;49.356;2.718;2023-08-06T06:55:06;4.18;;;2.00;;
23404;SDS011;11875;49.356;2.718;2023-08-06T06:57:32;2.00;;;1.42;;
23404;SDS011;11875;49.356;2.718;2023-08-06T06:59:58;6.15;;;1.98;;
23404;SDS011;11875;49.356;2.718;2023-08-06T07:02:23;3.03;;;1.58;;
23404;SDS011;11875;49.356;2.718;2023-08-06T07:04:49;1.60;;;1.50;;
23404;SDS011;11875;49.356;2.718;2023-08-06T07:07:15;4.57;;;1.50;;
23404;SDS011;11875;49.356;2.718;2023-08-06T07:09:41;3.20;;;1.30;;
23404;SDS011;11875;49.356;2.718;2023-08-06T07:12:06;5.10;;;1.52;;
23404;SDS011;11875;49.356;2.718;2023-08-06T07:14:32;2.67;;;1.70;;
23404;SDS011;11875;49.356;2.718;2023-08-06T07:16:58;6.20;;;1.67;;
23404;SDS011;11875;49.356;2.718;2023-08-06T07:19:23;5.90;;;1.83;;
23404;SDS011;11875;49.356;2.718;2023-08-06T07:21:49;3.33;;;1.60;;
23404;SDS011;11875;49.356;2.718;2023-08-06T07:24:15;7.38;;;1.92;;
23404;SDS011;11875;49.356;2.718;2023-08-06T07:26:41;2.83;;;1.77;;
23404;SDS011;11875;49.356;2.718;2023-08-06T07:29:06;4.57;;;1.60;;
23404;SDS011;11875;49.356;2.718;2023-08-06T07:31:32;2.35;;;1.58;;
23404;SDS011;11875;49.356;2.718;2023-08-06T07:33:58;2.13;;;1.33;;
23404;SDS011;11875;49.356;2.718;2023-08-06T07:36:23;8.43;;;1.67;;
23404;SDS011;11875;49.356;2.718;2023-08-06T07:38:49;7.28;;;1.70;;
23404;SDS011;11875;49.356;2.718;2023-08-06T07:41:20;2.25;;;1.63;;
23404;SDS011;11875;49.356;2.718;2023-08-06T07:43:46;3.72;;;1.77;;
23404;SDS011;11875;49.356;2.718;2023-08-06T07:46:12;5.20;;;2.10;;
23404;SDS011;11875;49.356;2.718;2023-08-06T07:48:38;3.83;;;1.83;;
23404;SDS011;11875;49.356;2.718;2023-08-06T07:51:04;7.80;;;1.83;;
23404;SDS011;11875;49.356;2.718;2023-08-06T07:53:29;4.82;;;2.17;;
23404;SDS011;11875;49.356;2.718;2023-08-06T07:55:55;3.72;;;2.00;;
23404;SDS011;11875;49.356;2.718;2023-08-06T07:58:23;3.25;;;1.85;;
23404;SDS011;11875;49.356;2.718;2023-08-06T08:00:49;7.55;;;1.75;;
23404;SDS011;11875;49.356;2.718;2023-08-06T08:03:15;8.13;;;2.17;;
23404;SDS011;11875;49.356;2.718;2023-08-06T08:05:42;2.58;;;1.83;;
23404;SDS011;11875;49.356;2.718;2023-08-06T08:08:09;4.22;;;1.90;;
23404;SDS011;11875;49.356;2.718;2023-08-06T08:10:34;6.63;;;2.50;;
23404;SDS011;11875;49.356;2.718;2023-08-06T08:13:01;6.72;;;2.25;;
23404;SDS011;11875;49.356;2.718;2023-08-06T08:15:28;5.15;;;2.20;;
23404;SDS011;11875;49.356;2.718;2023-08-06T08:17:54;4.90;;;2.03;;
23404;SDS011;11875;49.356;2.718;2023-08-06T08:20:20;5.07;;;1.75;;
23404;SDS011;11875;49.356;2.718;2023-08-06T08:22:46;2.95;;;1.75;;
23404;SDS011;11875;49.356;2.718;2023-08-06T08:25:11;5.00;;;2.00;;
23404;SDS011;11875;49.356;2.718;2023-08-06T08:27:37;3.25;;;1.90;;
23404;SDS011;11875;49.356;2.718;2023-08-06T08:30:03;5.00;;;1.80;;
23404;SDS011;11875;49.356;2.718;2023-08-06T08:32:29;5.60;;;1.95;;
23404;SDS011;11875;49.356;2.718;2023-08-06T08:34:55;4.13;;;1.58;;
23404;SDS011;11875;49.356;2.718;2023-08-06T08:37:20;8.25;;;1.95;;
23404;SDS011;11875;49.356;2.718;2023-08-06T08:39:46;3.42;;;1.80;;
23404;SDS011;11875;49.356;2.718;2023-08-06T08:42:12;11.80;;;1.90;;
23404;SDS011;11875;49.356;2.718;2023-08-06T08:44:38;7.95;;;1.80;;
23404;SDS011;11875;49.356;2.718;2023-08-06T08:47:06;2.80;;;1.88;;
23404;SDS011;11875;49.356;2.718;2023-08-06T08:49:34;2.67;;;1.77;;
23404;SDS011;11875;49.356;2.718;2023-08-06T08:52:00;2.47;;;1.73;;
23404;SDS011;11875;49.356;2.718;2023-08-06T08:54:28;2.05;;;1.50;;
23404;SDS011;11875;49.356;2.718;2023-08-06T08:56:55;1.77;;;1.58;;
23404;SDS011;11875;49.356;2.718;2023-08-06T08:59:22;3.53;;;1.70;;
23404;SDS011;11875;49.356;2.718;2023-08-06T09:01:48;3.30;;;1.80;;
23404;SDS011;11875;49.356;2.718;2023-08-06T09:04:18;5.65;;;2.35;;
23404;SDS011;11875;49.356;2.718;2023-08-06T09:06:45;4.90;;;1.67;;
23404;SDS011;11875;49.356;2.718;2023-08-06T09:09:35;2.85;;;1.70;;
23404;SDS011;11875;49.356;2.718;2023-08-06T09:12:05;2.47;;;1.38;;
23404;SDS011;11875;49.356;2.718;2023-08-06T09:14:36;3.63;;;1.80;;
23404;SDS011;11875;49.356;2.718;2023-08-06T09:17:04;2.47;;;1.85;;
23404;SDS011;11875;49.356;2.718;2023-08-06T09:19:30;3.45;;;1.50;;
23404;SDS011;11875;49.356;2.718;2023-08-06T09:21:57;1.75;;;1.25;;
23404;SDS011;11875;49.356;2.718;2023-08-06T09:24:22;5.93;;;1.58;;
23404;SDS011;11875;49.356;2.718;2023-08-06T09:26:48;4.72;;;1.70;;
23404;SDS011;11875;49.356;2.718;2023-08-06T09:29:14;2.22;;;1.40;;
23404;SDS011;11875;49.356;2.718;2023-08-06T09:31:46;2.60;;;1.60;;
23404;SDS011;11875;49.356;2.718;2023-08-06T09:34:16;2.88;;;1.40;;
23404;SDS011;11875;49.356;2.718;2023-08-06T09:36:46;3.22;;;1.80;;
23404;SDS011;11875;49.356;2.718;2023-08-06T09:39:13;2.58;;;1.30;;
23404;SDS011;11875;49.356;2.718;2023-08-06T09:41:43;1.70;;;1.27;;
23404;SDS011;11875;49.356;2.718;2023-08-06T09:44:16;3.53;;;1.45;;
23404;SDS011;11875;49.356;2.718;2023-08-06T09:46:46;5.35;;;1.80;;
23404;SDS011;11875;49.356;2.718;2023-08-06T09:51:58;3.25;;;1.70;;
23404;SDS011;11875;49.356;2.718;2023-08-06T09:54:28;4.50;;;1.38;;
23404;SDS011;11875;49.356;2.718;2023-08-06T09:56:55;4.07;;;1.70;;
23404;SDS011;11875;49.356;2.718;2023-08-06T09:59:22;5.70;;;1.58;;
23404;SDS011;11875;49.356;2.718;2023-08-06T10:01:49;3.00;;;1.23;;
23404;SDS011;11875;49.356;2.718;2023-08-06T10:04:15;2.15;;;1.17;;
23404;SDS011;11875;49.356;2.718;2023-08-06T10:06:41;2.78;;;1.30;;
23404;SDS011;11875;49.356;2.718;2023-08-06T10:09:08;4.00;;;1.58;;
23404;SDS011;11875;49.356;2.718;2023-08-06T10:11:35;3.58;;;1.13;;
23404;SDS011;11875;49.356;2.718;2023-08-06T10:14:04;2.40;;;1.15;;
23404;SDS011;11875;49.356;2.718;2023-08-06T10:16:46;3.08;;;1.50;;
23404;SDS011;11875;49.356;2.718;2023-08-06T10:19:12;2.10;;;1.00;;
23404;SDS011;11875;49.356;2.718;2023-08-06T10:21:40;3.13;;;1.30;;
23404;SDS011;11875;49.356;2.718;2023-08-06T10:24:09;2.75;;;1.15;;
23404;SDS011;11875;49.356;2.718;2023-08-06T10:26:39;3.42;;;1.17;;
23404;SDS011;11875;49.356;2.718;2023-08-06T10:32:02;2.72;;;1.10;;
23404;SDS011;11875;49.356;2.718;2023-08-06T10:37:34;6.78;;;1.33;;
23404;SDS011;11875;49.356;2.718;2023-08-06T10:40:03;2.60;;;0.80;;
23404;SDS011;11875;49.356;2.718;2023-08-06T10:42:32;2.58;;;1.30;;
23404;SDS011;11875;49.356;2.718;2023-08-06T10:47:59;3.45;;;1.35;;
23404;SDS011;11875;49.356;2.718;2023-08-06T10:50:24;2.88;;;1.00;;
23404;SDS011;11875;49.356;2.718;2023-08-06T10:52:50;4.32;;;1.27;;
23404;SDS011;11875;49.356;2.718;2023-08-06T10:55:28;1.08;;;0.80;;
23404;SDS011;11875;49.356;2.718;2023-08-06T10:57:54;1.67;;;1.15;;
23404;SDS011;11875;49.356;2.718;2023-08-06T11:00:21;4.45;;;1.23;;
23404;SDS011;11875;49.356;2.718;2023-08-06T11:02:48;5.70;;;1.50;;
23404;SDS011;11875;49.356;2.718;2023-08-06T11:05:14;2.10;;;1.00;;
23404;SDS011;11875;49.356;2.718;2023-08-06T11:07:40;4.60;;;1.20;;
23404;SDS011;11875;49.356;2.718;2023-08-06T11:10:06;2.85;;;1.38;;
23404;SDS011;11875;49.356;2.718;2023-08-06T11:12:34;1.33;;;0.98;;
23404;SDS011;11875;49.356;2.718;2023-08-06T11:15:00;3.20;;;1.00;;
23404;SDS011;11875;49.356;2.718;2023-08-06T11:17:27;2.65;;;1.10;;
23404;SDS011;11875;49.356;2.718;2023-08-06T11:19:54;2.15;;;1.15;;
23404;SDS011;11875;49.356;2.718;2023-08-06T11:22:22;1.85;;;1.05;;
23404;SDS011;11875;49.356;2.718;2023-08-06T11:24:48;4.53;;;1.13;;
23404;SDS011;11875;49.356;2.718;2023-08-06T11:27:14;3.08;;;1.40;;
23404;SDS011;11875;49.356;2.718;2023-08-06T11:29:41;1.10;;;0.80;;
23404;SDS011;11875;49.356;2.718;2023-08-06T11:32:08;2.10;;;1.23;;
23404;SDS011;11875;49.356;2.718;2023-08-06T11:34:34;1.77;;;1.20;;
23404;SDS011;11875;49.356;2.718;2023-08-06T11:37:00;6.00;;;1.02;;
23404;SDS011;11875;49.356;2.718;2023-08-06T11:39:28;2.00;;;0.80;;
23404;SDS011;11875;49.356;2.718;2023-08-06T11:41:53;2.28;;;1.02;;
23404;SDS011;11875;49.356;2.718;2023-08-06T11:44:19;1.27;;;1.00;;
23404;SDS011;11875;49.356;2.718;2023-08-06T11:46:51;3.22;;;1.10;;
23404;SDS011;11875;49.356;2.718;2023-08-06T11:49:20;1.13;;;0.90;;
23404;SDS011;11875;49.356;2.718;2023-08-06T11:54:45;2.40;;;0.88;;
23404;SDS011;11875;49.356;2.718;2023-08-06T11:57:12;1.95;;;0.80;;
23404;SDS011;11875;49.356;2.718;2023-08-06T11:59:38;2.05;;;0.88;;
23404;SDS011;11875;49.356;2.718;2023-08-06T12:02:04;1.30;;;1.20;;
23404;SDS011;11875;49.356;2.718;2023-08-06T12:05:18;3.10;;;1.00;;
23404;SDS011;11875;49.356;2.718;2023-08-06T12:07:26;3.90;;;2.13;;
23404;SDS011;11875;49.356;2.718;2023-08-06T12:09:53;1.90;;;1.15;;
23404;SDS011;11875;49.356;2.718;2023-08-06T12:12:19;3.00;;;0.80;;
23404;SDS011;11875;49.356;2.718;2023-08-06T12:14:44;2.85;;;0.85;;
23404;SDS011;11875;49.356;2.718;2023-08-06T12:17:10;1.98;;;1.08;;
23404;SDS011;11875;49.356;2.718;2023-08-06T12:19:36;1.48;;;1.15;;
23404;SDS011;11875;49.356;2.718;2023-08-06T12:22:01;2.88;;;0.98;;
23404;SDS011;11875;49.356;2.718;2023-08-06T12:24:28;10.40;;;4.65;;
23404;SDS011;11875;49.356;2.718;2023-08-06T12:26:56;2.33;;;1.00;;
23404;SDS011;11875;49.356;2.718;2023-08-06T12:29:22;3.22;;;1.40;;
23404;SDS011;11875;49.356;2.718;2023-08-06T12:31:48;2.92;;;1.20;;
23404;SDS011;11875;49.356;2.718;2023-08-06T12:34:14;1.90;;;1.52;;
23404;SDS011;11875;49.356;2.718;2023-08-06T12:36:39;4.90;;;1.67;;
23404;SDS011;11875;49.356;2.718;2023-08-06T12:39:05;2.20;;;1.00;;
23404;SDS011;11875;49.356;2.718;2023-08-06T12:41:30;2.90;;;1.08;;
23404;SDS011;11875;49.356;2.718;2023-08-06T12:43:56;3.05;;;1.30;;
23404;SDS011;11875;49.356;2.718;2023-08-06T12:46:22;3.17;;;1.20;;
23404;SDS011;11875;49.356;2.718;2023-08-06T12:48:47;3.13;;;1.27;;
23404;SDS011;11875;49.356;2.718;2023-08-06T12:51:13;2.33;;;1.40;;
23404;SDS011;11875;49.356;2.718;2023-08-06T12:53:39;2.30;;;1.23;;
23404;SDS011;11875;49.356;2.718;2023-08-06T12:56:04;4.13;;;1.50;;
23404;SDS011;11875;49.356;2.718;2023-08-06T12:58:30;3.45;;;1.35;;
23404;SDS011;11875;49.356;2.718;2023-08-06T13:00:56;2.75;;;1.30;;
23404;SDS011;11875;49.356;2.718;2023-08-06T13:03:21;3.17;;;1.23;;
23404;SDS011;11875;49.356;2.718;2023-08-06T13:05:47;4.25;;;1.35;;
23404;SDS011;11875;49.356;2.718;2023-08-06T13:08:13;2.92;;;1.17;;
23404;SDS011;11875;49.356;2.718;2023-08-06T13:10:38;2.53;;;1.15;;
23404;SDS011;11875;49.356;2.718;2023-08-06T13:13:04;1.67;;;1.25;;
23404;SDS011;11875;49.356;2.718;2023-08-06T13:15:30;2.97;;;1.20;;
23404;SDS011;11875;49.356;2.718;2023-08-06T13:17:55;1.95;;;0.98;;
23404;SDS011;11875;49.356;2.718;2023-08-06T13:20:21;4.68;;;1.00;;
23404;SDS011;11875;49.356;2.718;2023-08-06T13:22:47;3.80;;;1.17;;
23404;SDS011;11875;49.356;2.718;2023-08-06T13:25:15;4.40;;;1.40;;
23404;SDS011;11875;49.356;2.718;2023-08-06T13:27:42;1.55;;;1.40;;
23404;SDS011;11875;49.356;2.718;2023-08-06T13:30:09;5.22;;;1.52;;
23404;SDS011;11875;49.356;2.718;2023-08-06T13:32:35;2.53;;;1.23;;
23404;SDS011;11875;49.356;2.718;2023-08-06T13:35:02;2.22;;;1.10;;
23404;SDS011;11875;49.356;2.718;2023-08-06T13:37:29;1.48;;;1.20;;
23404;SDS011;11875;49.356;2.718;2023-08-06T13:39:54;1.70;;;1.00;;
23404;SDS011;11875;49.356;2.718;2023-08-06T13:42:20;3.38;;;1.30;;
23404;SDS011;11875;49.356;2.718;2023-08-06T13:44:46;1.38;;;1.02;;
23404;SDS011;11875;49.356;2.718;2023-08-06T13:47:12;2.17;;;1.08;;
23404;SDS011;11875;49.356;2.718;2023-08-06T13:49:37;2.40;;;1.05;;
23404;SDS011;11875;49.356;2.718;2023-08-06T13:52:03;3.72;;;1.30;;
23404;SDS011;11875;49.356;2.718;2023-08-06T13:54:29;3.45;;;1.55;;
23404;SDS011;11875;49.356;2.718;2023-08-06T13:56:55;1.65;;;1.15;;
23404;SDS011;11875;49.356;2.718;2023-08-06T13:59:20;1.48;;;1.08;;
23404;SDS011;11875;49.356;2.718;2023-08-06T14:01:48;1.90;;;1.45;;
23404;SDS011;11875;49.356;2.718;2023-08-06T14:04:14;2.63;;;1.27;;
23404;SDS011;11875;49.356;2.718;2023-08-06T14:06:40;2.78;;;1.33;;
23404;SDS011;11875;49.356;2.718;2023-08-06T14:09:05;3.15;;;1.00;;
23404;SDS011;11875;49.356;2.718;2023-08-06T14:11:32;2.58;;;1.38;;
23404;SDS011;11875;49.356;2.718;2023-08-06T14:13:58;1.98;;;1.20;;
23404;SDS011;11875;49.356;2.718;2023-08-06T14:16:25;2.28;;;1.40;;
23404;SDS011;11875;49.356;2.718;2023-08-06T14:18:50;4.50;;;1.20;;
23404;SDS011;11875;49.356;2.718;2023-08-06T14:21:16;1.35;;;0.90;;
23404;SDS011;11875;49.356;2.718;2023-08-06T14:23:41;2.53;;;1.40;;
23404;SDS011;11875;49.356;2.718;2023-08-06T14:26:07;1.98;;;1.33;;
23404;SDS011;11875;49.356;2.718;2023-08-06T14:28:35;2.75;;;1.20;;
23404;SDS011;11875;49.356;2.718;2023-08-06T14:31:01;1.00;;;0.90;;
23404;SDS011;11875;49.356;2.718;2023-08-06T14:33:27;1.75;;;1.00;;
23404;SDS011;11875;49.356;2.718;2023-08-06T14:35:52;1.60;;;1.08;;
23404;SDS011;11875;49.356;2.718;2023-08-06T14:38:18;4.30;;;1.48;;
23404;SDS011;11875;49.356;2.718;2023-08-06T14:40:43;2.08;;;1.20;;
23404;SDS011;11875;49.356;2.718;2023-08-06T14:43:09;6.47;;;1.30;;
23404;SDS011;11875;49.356;2.718;2023-08-06T14:45:38;3.83;;;1.40;;
23404;SDS011;11875;49.356;2.718;2023-08-06T14:48:04;4.93;;;2.42;;
23404;SDS011;11875;49.356;2.718;2023-08-06T14:50:30;7.13;;;1.80;;
23404;SDS011;11875;49.356;2.718;2023-08-06T14:52:56;2.25;;;1.55;;
23404;SDS011;11875;49.356;2.718;2023-08-06T14:55:25;1.90;;;1.30;;
23404;SDS011;11875;49.356;2.718;2023-08-06T14:57:51;3.15;;;1.40;;
23404;SDS011;11875;49.356;2.718;2023-08-06T15:00:18;4.47;;;1.38;;
23404;SDS011;11875;49.356;2.718;2023-08-06T15:02:44;3.90;;;1.50;;
23404;SDS011;11875;49.356;2.718;2023-08-06T15:05:09;4.78;;;1.58;;
23404;SDS011;11875;49.356;2.718;2023-08-06T15:07:35;4.60;;;1.58;;